This is the latest recevied weather packets stored in our database for station/object W2SRH. If no packets are shown the sender has not sent any weather packets the latest 10 day(s).
| Time | Temp. | Humidity | Pressure | Rain* | Wind** | Luminosity | Snow |
|---|---|---|---|---|---|---|---|
| 1778087344 | 18.33° C | 80% | 999.8 hPa | 0.76 mm | 0.45 m/s, 186° | - | - |
| 1778086744 | 18.33° C | 81% | 999.7 hPa | 0.76 mm | 0.45 m/s, 174° | - | - |
| 1778086145 | 17.78° C | 81% | 999.8 hPa | 1.27 mm | 0 m/s | - | - |
| 1778085546 | 17.78° C | 83% | 1000 hPa | 1.02 mm | 0.45 m/s, 185° | - | - |
| 1778084945 | 17.22° C | 82% | 1000.7 hPa | 1.27 mm | 0 m/s | - | - |
| 1778084345 | 17.22° C | 79% | 1001 hPa | 1.02 mm | 0.45 m/s, 240° | - | - |
| 1778083746 | 17.78° C | 76% | 1001.2 hPa | 0.76 mm | 0.89 m/s, 246° | - | - |
| 1778083145 | 17.78° C | 75% | 1001.1 hPa | 0.51 mm | 0 m/s | - | - |
| 1778082545 | 17.78° C | 74% | 1001.2 hPa | 0.25 mm | 0 m/s | - | - |
| 1778081945 | 18.33° C | 72% | 1001.1 hPa | 0 mm | 0.89 m/s, 271° | - | - |
| 1778081344 | 18.89° C | 68% | 1001.1 hPa | 0 mm | 1.34 m/s, 234° | - | - |
| 1778080745 | 20° C | 63% | 1000.9 hPa | 0 mm | 0.89 m/s, 217° | - | - |
| 1778080145 | 20° C | 62% | 1000.9 hPa | 0 mm | 0.89 m/s, 243° | - | - |
| 1778079546 | 20° C | 62% | 1001.1 hPa | 0 mm | 0.89 m/s, 234° | - | - |
| 1778078944 | 20° C | 59% | 1001.2 hPa | 0 mm | 0.89 m/s, 176° | - | - |
| 1778078344 | 20° C | 59% | 1001.2 hPa | 0 mm | 0.45 m/s, 184° | - | - |
| 1778077745 | 20.56° C | 58% | 1001.1 hPa | 0 mm | 1.79 m/s, 257° | - | - |
| 1778077144 | 20.56° C | 58% | 1001.1 hPa | 0 mm | 0.45 m/s, 255° | - | - |
| 1778076544 | 20.56° C | 58% | 1001 hPa | 0 mm | 3.13 m/s, 253° | - | - |
| 1778075945 | 20° C | 60% | 1001 hPa | 0 mm | 0.45 m/s, 205° | - | - |
| 1778075344 | 19.44° C | 61% | 1001 hPa | 0 mm | 0.89 m/s, 235° | - | - |
| 1778074744 | 19.44° C | 62% | 1001 hPa | 0 mm | 1.34 m/s, 234° | - | - |
| 1778074144 | 19.44° C | 62% | 1001.3 hPa | 0 mm | 0.89 m/s, 246° | - | - |
| 1778073545 | 19.44° C | 62% | 1001.3 hPa | 0 mm | 1.34 m/s, 208° | - | - |
| 1778072945 | 19.44° C | 62% | 1001.3 hPa | 0 mm | 1.34 m/s, 244° | - | - |
* Rain latest hour (hover to see other rain measurements)
** Current wind speed in m/s (hover to see current wind gust speed)